sensor_id;sensor_type;location;lat;lon;timestamp;P1;durP1;ratioP1;P2;durP2;ratioP2
22515;SDS011;11424;48.860;9.624;2023-02-01T00:01:37;67.8;;;74.6;;
22515;SDS011;11424;48.860;9.624;2023-02-01T00:06:37;67.9;;;75.1;;
22515;SDS011;11424;48.860;9.624;2023-02-01T00:11:37;68.8;;;76.6;;
22515;SDS011;11424;48.860;9.624;2023-02-01T00:16:37;69.5;;;77;;
22515;SDS011;11424;48.860;9.624;2023-02-01T00:21:37;86;;;95.4;;
22515;SDS011;11424;48.860;9.624;2023-02-01T00:26:38;91.8;;;102.5;;
22515;SDS011;11424;48.860;9.624;2023-02-01T00:31:37;95.2;;;106.5;;
22515;SDS011;11424;48.860;9.624;2023-02-01T00:36:37;97;;;109;;
22515;SDS011;11424;48.860;9.624;2023-02-01T00:41:37;95;;;106.6;;
22515;SDS011;11424;48.860;9.624;2023-02-01T00:46:37;83.8;;;93;;
22515;SDS011;11424;48.860;9.624;2023-02-01T00:51:37;83.2;;;92;;
22515;SDS011;11424;48.860;9.624;2023-02-01T00:56:37;83.4;;;92.5;;
22515;SDS011;11424;48.860;9.624;2023-02-01T01:01:37;113;;;126.9;;
22515;SDS011;11424;48.860;9.624;2023-02-01T01:06:37;113.3;;;128.9;;
22515;SDS011;11424;48.860;9.624;2023-02-01T01:11:37;121;;;137.4;;
22515;SDS011;11424;48.860;9.624;2023-02-01T01:16:37;129.9;;;161.7;;
22515;SDS011;11424;48.860;9.624;2023-02-01T01:21:37;122;;;139.9;;
22515;SDS011;11424;48.860;9.624;2023-02-01T01:26:37;311.9;;;577.8;;
22515;SDS011;11424;48.860;9.624;2023-02-01T01:31:37;431.7;;;698.2;;
22515;SDS011;11424;48.860;9.624;2023-02-01T01:36:37;449.3;;;673.4;;
22515;SDS011;11424;48.860;9.624;2023-02-01T01:41:37;404.2;;;688.2;;
22515;SDS011;11424;48.860;9.624;2023-02-01T01:46:37;425.8;;;701.8;;
22515;SDS011;11424;48.860;9.624;2023-02-01T01:51:38;443.6;;;706.1;;
22515;SDS011;11424;48.860;9.624;2023-02-01T01:56:38;451.5;;;704;;
22515;SDS011;11424;48.860;9.624;2023-02-01T02:01:37;445.9;;;703.6;;
22515;SDS011;11424;48.860;9.624;2023-02-01T02:06:39;421.9;;;703.1;;
22515;SDS011;11424;48.860;9.624;2023-02-01T02:11:37;422.2;;;706.3;;
22515;SDS011;11424;48.860;9.624;2023-02-01T02:16:40;422.7;;;707.3;;
22515;SDS011;11424;48.860;9.624;2023-02-01T02:21:42;441;;;703.3;;
22515;SDS011;11424;48.860;9.624;2023-02-01T02:26:44;306.2;;;559.5;;
22515;SDS011;11424;48.860;9.624;2023-02-01T02:31:46;362.8;;;618.2;;
22515;SDS011;11424;48.860;9.624;2023-02-01T02:36:39;315;;;578.5;;
22515;SDS011;11424;48.860;9.624;2023-02-01T02:41:40;389.6;;;673.2;;
22515;SDS011;11424;48.860;9.624;2023-02-01T02:46:38;416.5;;;689.5;;
22515;SDS011;11424;48.860;9.624;2023-02-01T02:51:39;380.7;;;641.6;;
22515;SDS011;11424;48.860;9.624;2023-02-01T02:56:38;346.7;;;600.2;;
22515;SDS011;11424;48.860;9.624;2023-02-01T03:01:38;367.2;;;606.1;;
22515;SDS011;11424;48.860;9.624;2023-02-01T03:06:37;369.6;;;624.8;;
22515;SDS011;11424;48.860;9.624;2023-02-01T03:11:37;394.2;;;684.9;;
22515;SDS011;11424;48.860;9.624;2023-02-01T03:16:39;411.8;;;706.3;;
22515;SDS011;11424;48.860;9.624;2023-02-01T03:21:38;425.5;;;712.8;;
22515;SDS011;11424;48.860;9.624;2023-02-01T03:26:38;395;;;686.9;;
22515;SDS011;11424;48.860;9.624;2023-02-01T03:31:37;392.5;;;666.6;;
22515;SDS011;11424;48.860;9.624;2023-02-01T03:36:39;394.8;;;689;;
22515;SDS011;11424;48.860;9.624;2023-02-01T03:41:42;383;;;693.6;;
22515;SDS011;11424;48.860;9.624;2023-02-01T03:46:39;364.8;;;664.6;;
22515;SDS011;11424;48.860;9.624;2023-02-01T03:51:38;392.2;;;671.3;;
22515;SDS011;11424;48.860;9.624;2023-02-01T03:56:38;456.4;;;705.1;;
22515;SDS011;11424;48.860;9.624;2023-02-01T04:01:37;456.2;;;707;;
22515;SDS011;11424;48.860;9.624;2023-02-01T04:06:38;338.2;;;602.5;;
22515;SDS011;11424;48.860;9.624;2023-02-01T04:11:38;303.2;;;567;;
22515;SDS011;11424;48.860;9.624;2023-02-01T04:16:38;301;;;566.9;;
22515;SDS011;11424;48.860;9.624;2023-02-01T04:21:38;338.4;;;593.8;;
22515;SDS011;11424;48.860;9.624;2023-02-01T04:26:38;326.2;;;580.9;;
22515;SDS011;11424;48.860;9.624;2023-02-01T04:31:37;338.5;;;606.9;;
22515;SDS011;11424;48.860;9.624;2023-02-01T04:36:38;352.2;;;613.8;;
22515;SDS011;11424;48.860;9.624;2023-02-01T04:41:37;401.9;;;675.1;;
22515;SDS011;11424;48.860;9.624;2023-02-01T04:46:38;416.2;;;692.6;;
22515;SDS011;11424;48.860;9.624;2023-02-01T04:51:38;428.4;;;702.9;;
22515;SDS011;11424;48.860;9.624;2023-02-01T04:56:38;419.3;;;689.3;;
22515;SDS011;11424;48.860;9.624;2023-02-01T05:01:38;472.2;;;712.5;;
22515;SDS011;11424;48.860;9.624;2023-02-01T05:06:38;469.4;;;709.3;;
22515;SDS011;11424;48.860;9.624;2023-02-01T05:11:38;445.2;;;712.7;;
22515;SDS011;11424;48.860;9.624;2023-02-01T05:16:38;460.1;;;693.6;;
22515;SDS011;11424;48.860;9.624;2023-02-01T05:21:38;461;;;714.6;;
22515;SDS011;11424;48.860;9.624;2023-02-01T05:26:38;458;;;708;;
22515;SDS011;11424;48.860;9.624;2023-02-01T05:31:38;461;;;716;;
22515;SDS011;11424;48.860;9.624;2023-02-01T05:36:38;455.6;;;707.7;;
22515;SDS011;11424;48.860;9.624;2023-02-01T05:41:38;448.9;;;704;;
22515;SDS011;11424;48.860;9.624;2023-02-01T05:46:38;439.9;;;693.1;;
22515;SDS011;11424;48.860;9.624;2023-02-01T05:51:38;442.8;;;707.6;;
22515;SDS011;11424;48.860;9.624;2023-02-01T05:56:38;443.2;;;713;;
22515;SDS011;11424;48.860;9.624;2023-02-01T06:01:38;456.6;;;711.7;;
22515;SDS011;11424;48.860;9.624;2023-02-01T06:06:38;466.5;;;718.8;;
22515;SDS011;11424;48.860;9.624;2023-02-01T06:11:38;379.4;;;627.6;;
22515;SDS011;11424;48.860;9.624;2023-02-01T06:16:38;378.6;;;616.3;;
22515;SDS011;11424;48.860;9.624;2023-02-01T06:21:38;446.5;;;687;;
22515;SDS011;11424;48.860;9.624;2023-02-01T06:26:38;409;;;659.7;;
22515;SDS011;11424;48.860;9.624;2023-02-01T06:31:38;440.4;;;702.9;;
22515;SDS011;11424;48.860;9.624;2023-02-01T06:36:38;413.6;;;686.9;;
22515;SDS011;11424;48.860;9.624;2023-02-01T06:41:38;437.8;;;701.2;;
22515;SDS011;11424;48.860;9.624;2023-02-01T06:46:38;452;;;710.8;;
22515;SDS011;11424;48.860;9.624;2023-02-01T06:51:38;436.1;;;697.4;;
22515;SDS011;11424;48.860;9.624;2023-02-01T06:56:38;370.7;;;627;;
22515;SDS011;11424;48.860;9.624;2023-02-01T07:01:38;335.3;;;589;;
22515;SDS011;11424;48.860;9.624;2023-02-01T07:06:38;319;;;563.5;;
22515;SDS011;11424;48.860;9.624;2023-02-01T07:11:38;346;;;599.1;;
22515;SDS011;11424;48.860;9.624;2023-02-01T07:16:38;404.2;;;662.7;;
22515;SDS011;11424;48.860;9.624;2023-02-01T07:21:38;442;;;697.3;;
22515;SDS011;11424;48.860;9.624;2023-02-01T07:26:38;432.7;;;697.7;;
22515;SDS011;11424;48.860;9.624;2023-02-01T07:31:38;464.9;;;712.5;;
22515;SDS011;11424;48.860;9.624;2023-02-01T07:36:38;467.1;;;709.6;;
22515;SDS011;11424;48.860;9.624;2023-02-01T07:41:38;420.1;;;686.4;;
22515;SDS011;11424;48.860;9.624;2023-02-01T07:46:38;467.2;;;721.5;;
22515;SDS011;11424;48.860;9.624;2023-02-01T07:51:38;408.7;;;676;;
22515;SDS011;11424;48.860;9.624;2023-02-01T07:56:38;426.7;;;685.6;;
22515;SDS011;11424;48.860;9.624;2023-02-01T08:01:38;309.6;;;561.3;;
22515;SDS011;11424;48.860;9.624;2023-02-01T08:06:38;330.9;;;585.9;;
22515;SDS011;11424;48.860;9.624;2023-02-01T08:11:38;247.6;;;435.4;;
22515;SDS011;11424;48.860;9.624;2023-02-01T08:16:38;361.4;;;618.6;;
22515;SDS011;11424;48.860;9.624;2023-02-01T08:21:38;396.3;;;651.2;;
22515;SDS011;11424;48.860;9.624;2023-02-01T08:26:38;435.9;;;700.6;;
22515;SDS011;11424;48.860;9.624;2023-02-01T08:31:38;451.4;;;703.3;;
22515;SDS011;11424;48.860;9.624;2023-02-01T08:36:38;451.7;;;706.9;;
22515;SDS011;11424;48.860;9.624;2023-02-01T08:41:38;451.5;;;709.7;;
22515;SDS011;11424;48.860;9.624;2023-02-01T08:46:38;469.1;;;716.4;;
22515;SDS011;11424;48.860;9.624;2023-02-01T08:51:38;470.8;;;712.7;;
22515;SDS011;11424;48.860;9.624;2023-02-01T08:56:38;465;;;716.9;;
22515;SDS011;11424;48.860;9.624;2023-02-01T09:01:38;477.4;;;711.6;;
22515;SDS011;11424;48.860;9.624;2023-02-01T09:06:39;468.6;;;674.8;;
22515;SDS011;11424;48.860;9.624;2023-02-01T09:11:38;472.5;;;684.7;;
22515;SDS011;11424;48.860;9.624;2023-02-01T09:16:38;469.4;;;680.7;;
22515;SDS011;11424;48.860;9.624;2023-02-01T09:21:38;477;;;692.8;;
22515;SDS011;11424;48.860;9.624;2023-02-01T09:26:38;467.6;;;678.5;;
22515;SDS011;11424;48.860;9.624;2023-02-01T09:31:38;470;;;692.3;;
22515;SDS011;11424;48.860;9.624;2023-02-01T09:36:38;406;;;601.6;;
22515;SDS011;11424;48.860;9.624;2023-02-01T09:41:43;319.4;;;491.2;;
22515;SDS011;11424;48.860;9.624;2023-02-01T09:46:38;67.7;;;94.5;;
22515;SDS011;11424;48.860;9.624;2023-02-01T09:51:39;78.2;;;117.1;;
22515;SDS011;11424;48.860;9.624;2023-02-01T09:56:39;68.8;;;103.5;;
22515;SDS011;11424;48.860;9.624;2023-02-01T10:01:38;49.3;;;57.7;;
22515;SDS011;11424;48.860;9.624;2023-02-01T10:06:41;32.2;;;36;;
22515;SDS011;11424;48.860;9.624;2023-02-01T10:11:40;257.1;;;415.8;;
22515;SDS011;11424;48.860;9.624;2023-02-01T10:16:40;36.7;;;39.6;;
22515;SDS011;11424;48.860;9.624;2023-02-01T10:21:41;104.3;;;168.1;;
22515;SDS011;11424;48.860;9.624;2023-02-01T10:26:39;79.3;;;120.3;;
22515;SDS011;11424;48.860;9.624;2023-02-01T10:31:38;99.6;;;164.2;;
22515;SDS011;11424;48.860;9.624;2023-02-01T10:36:39;51.2;;;63.1;;
22515;SDS011;11424;48.860;9.624;2023-02-01T10:41:38;286.1;;;433.3;;
22515;SDS011;11424;48.860;9.624;2023-02-01T10:46:38;363.8;;;553.3;;
22515;SDS011;11424;48.860;9.624;2023-02-01T10:51:39;369.3;;;566.4;;
22515;SDS011;11424;48.860;9.624;2023-02-01T10:56:38;315.5;;;494.6;;
22515;SDS011;11424;48.860;9.624;2023-02-01T11:01:39;386.9;;;583.5;;
22515;SDS011;11424;48.860;9.624;2023-02-01T11:06:38;375.2;;;568.8;;
22515;SDS011;11424;48.860;9.624;2023-02-01T11:11:52;445.8;;;649.6;;
22515;SDS011;11424;48.860;9.624;2023-02-01T11:16:38;454.7;;;678.5;;
22515;SDS011;11424;48.860;9.624;2023-02-01T11:21:38;454.1;;;688.9;;
22515;SDS011;11424;48.860;9.624;2023-02-01T11:26:38;355.5;;;542.5;;
22515;SDS011;11424;48.860;9.624;2023-02-01T11:31:38;383.6;;;579;;
22515;SDS011;11424;48.860;9.624;2023-02-01T11:36:38;389.2;;;583.7;;
22515;SDS011;11424;48.860;9.624;2023-02-01T11:41:42;411.8;;;612.5;;
22515;SDS011;11424;48.860;9.624;2023-02-01T11:46:38;442.4;;;651.3;;
22515;SDS011;11424;48.860;9.624;2023-02-01T11:51:42;449.2;;;661.2;;
22515;SDS011;11424;48.860;9.624;2023-02-01T11:56:40;451.8;;;666.8;;
22515;SDS011;11424;48.860;9.624;2023-02-01T12:01:43;423.6;;;626.5;;
22515;SDS011;11424;48.860;9.624;2023-02-01T12:06:42;441;;;650.5;;
22515;SDS011;11424;48.860;9.624;2023-02-01T12:11:42;450.4;;;667.2;;
22515;SDS011;11424;48.860;9.624;2023-02-01T12:16:50;455.3;;;679.1;;
22515;SDS011;11424;48.860;9.624;2023-02-01T12:21:42;454.7;;;688.6;;
22515;SDS011;11424;48.860;9.624;2023-02-01T12:26:40;452.1;;;692.4;;
22515;SDS011;11424;48.860;9.624;2023-02-01T12:31:49;451.1;;;696;;
22515;SDS011;11424;48.860;9.624;2023-02-01T12:36:40;448.5;;;692.2;;
22515;SDS011;11424;48.860;9.624;2023-02-01T12:41:43;462.8;;;679;;
22515;SDS011;11424;48.860;9.624;2023-02-01T12:46:40;460.7;;;674.6;;
22515;SDS011;11424;48.860;9.624;2023-02-01T12:51:40;464;;;674.7;;
22515;SDS011;11424;48.860;9.624;2023-02-01T12:56:39;460.9;;;671.2;;
22515;SDS011;11424;48.860;9.624;2023-02-01T13:01:39;458.4;;;670.3;;
22515;SDS011;11424;48.860;9.624;2023-02-01T13:06:39;463.6;;;683.6;;
22515;SDS011;11424;48.860;9.624;2023-02-01T13:11:39;455.2;;;698.5;;
22515;SDS011;11424;48.860;9.624;2023-02-01T13:16:38;455;;;699.2;;
22515;SDS011;11424;48.860;9.624;2023-02-01T13:21:39;459.2;;;693.3;;
22515;SDS011;11424;48.860;9.624;2023-02-01T13:26:38;457.8;;;690.8;;
22515;SDS011;11424;48.860;9.624;2023-02-01T13:31:46;457.5;;;689.8;;
22515;SDS011;11424;48.860;9.624;2023-02-01T13:36:43;458.3;;;688.5;;
22515;SDS011;11424;48.860;9.624;2023-02-01T13:41:39;452;;;689.8;;
22515;SDS011;11424;48.860;9.624;2023-02-01T13:46:39;447.1;;;690.4;;
22515;SDS011;11424;48.860;9.624;2023-02-01T13:51:40;452.1;;;692;;
22515;SDS011;11424;48.860;9.624;2023-02-01T13:56:39;437.2;;;694.4;;
22515;SDS011;11424;48.860;9.624;2023-02-01T14:01:38;450.2;;;691.8;;
22515;SDS011;11424;48.860;9.624;2023-02-01T14:06:40;453;;;689.4;;
22515;SDS011;11424;48.860;9.624;2023-02-01T14:11:39;455.5;;;685.3;;
22515;SDS011;11424;48.860;9.624;2023-02-01T14:16:38;454.8;;;682.2;;
22515;SDS011;11424;48.860;9.624;2023-02-01T14:21:46;456.8;;;680.2;;
22515;SDS011;11424;48.860;9.624;2023-02-01T14:26:42;456.6;;;681.2;;
22515;SDS011;11424;48.860;9.624;2023-02-01T14:31:41;457.3;;;678.2;;
22515;SDS011;11424;48.860;9.624;2023-02-01T14:36:39;460.1;;;678.4;;
22515;SDS011;11424;48.860;9.624;2023-02-01T14:41:38;456.4;;;679.5;;
22515;SDS011;11424;48.860;9.624;2023-02-01T14:47:44;452.5;;;670.3;;
22515;SDS011;11424;48.860;9.624;2023-02-01T14:51:38;435.4;;;638.7;;
22515;SDS011;11424;48.860;9.624;2023-02-01T14:56:38;452.5;;;668.9;;
22515;SDS011;11424;48.860;9.624;2023-02-01T15:01:38;454.2;;;674;;
22515;SDS011;11424;48.860;9.624;2023-02-01T15:06:39;457.2;;;673.6;;
22515;SDS011;11424;48.860;9.624;2023-02-01T15:11:55;457.9;;;673.1;;
22515;SDS011;11424;48.860;9.624;2023-02-01T15:16:41;459.6;;;687.7;;
22515;SDS011;11424;48.860;9.624;2023-02-01T15:21:42;459.3;;;685.7;;
22515;SDS011;11424;48.860;9.624;2023-02-01T15:26:38;462.6;;;690;;
22515;SDS011;11424;48.860;9.624;2023-02-01T15:31:39;462;;;692.5;;
22515;SDS011;11424;48.860;9.624;2023-02-01T15:36:38;452.7;;;695.1;;
22515;SDS011;11424;48.860;9.624;2023-02-01T15:41:38;458.1;;;690.8;;
22515;SDS011;11424;48.860;9.624;2023-02-01T15:46:39;472.8;;;688.2;;
22515;SDS011;11424;48.860;9.624;2023-02-01T15:51:38;471.2;;;691.2;;
22515;SDS011;11424;48.860;9.624;2023-02-01T15:56:39;465.9;;;697.3;;
22515;SDS011;11424;48.860;9.624;2023-02-01T16:01:38;466.3;;;676.2;;
22515;SDS011;11424;48.860;9.624;2023-02-01T16:06:44;460.4;;;676.6;;
22515;SDS011;11424;48.860;9.624;2023-02-01T16:11:40;453.8;;;663.8;;
22515;SDS011;11424;48.860;9.624;2023-02-01T16:16:38;449.7;;;657.8;;
22515;SDS011;11424;48.860;9.624;2023-02-01T16:21:38;449.2;;;649.2;;
22515;SDS011;11424;48.860;9.624;2023-02-01T16:26:38;450.8;;;652.9;;
22515;SDS011;11424;48.860;9.624;2023-02-01T16:31:38;465.1;;;667.8;;
22515;SDS011;11424;48.860;9.624;2023-02-01T16:36:38;457;;;660.6;;
22515;SDS011;11424;48.860;9.624;2023-02-01T16:41:38;461.9;;;666.2;;
22515;SDS011;11424;48.860;9.624;2023-02-01T16:46:39;463.6;;;670.9;;
22515;SDS011;11424;48.860;9.624;2023-02-01T16:51:38;464.2;;;678.7;;
22515;SDS011;11424;48.860;9.624;2023-02-01T16:56:38;459.7;;;697.8;;
22515;SDS011;11424;48.860;9.624;2023-02-01T17:01:38;449.5;;;704.5;;
22515;SDS011;11424;48.860;9.624;2023-02-01T17:06:38;465.5;;;674.5;;
22515;SDS011;11424;48.860;9.624;2023-02-01T17:11:38;447;;;645.5;;
22515;SDS011;11424;48.860;9.624;2023-02-01T17:16:38;453.3;;;648.8;;
22515;SDS011;11424;48.860;9.624;2023-02-01T17:21:39;457.2;;;664.2;;
22515;SDS011;11424;48.860;9.624;2023-02-01T17:26:38;462;;;675.2;;
22515;SDS011;11424;48.860;9.624;2023-02-01T17:31:39;467.9;;;693.9;;
22515;SDS011;11424;48.860;9.624;2023-02-01T17:36:38;462.4;;;701.4;;
22515;SDS011;11424;48.860;9.624;2023-02-01T17:41:38;461.5;;;697.3;;
22515;SDS011;11424;48.860;9.624;2023-02-01T17:46:38;462.9;;;689.4;;
22515;SDS011;11424;48.860;9.624;2023-02-01T17:51:38;470.9;;;693.7;;
22515;SDS011;11424;48.860;9.624;2023-02-01T17:56:38;467.8;;;692.7;;
22515;SDS011;11424;48.860;9.624;2023-02-01T18:01:38;462.7;;;695.8;;
22515;SDS011;11424;48.860;9.624;2023-02-01T18:06:38;453.7;;;691.4;;
22515;SDS011;11424;48.860;9.624;2023-02-01T18:11:38;457.8;;;693.8;;
22515;SDS011;11424;48.860;9.624;2023-02-01T18:16:38;462.8;;;698.4;;
22515;SDS011;11424;48.860;9.624;2023-02-01T18:21:40;445.9;;;699.4;;
22515;SDS011;11424;48.860;9.624;2023-02-01T18:26:38;451.7;;;694.2;;
22515;SDS011;11424;48.860;9.624;2023-02-01T18:31:39;445.5;;;686.4;;
22515;SDS011;11424;48.860;9.624;2023-02-01T18:36:38;445.7;;;690.1;;
22515;SDS011;11424;48.860;9.624;2023-02-01T18:41:38;449.7;;;703;;
22515;SDS011;11424;48.860;9.624;2023-02-01T18:46:38;438.4;;;692.3;;
22515;SDS011;11424;48.860;9.624;2023-02-01T18:51:38;435.4;;;689.8;;
22515;SDS011;11424;48.860;9.624;2023-02-01T18:56:38;429.6;;;685.2;;
22515;SDS011;11424;48.860;9.624;2023-02-01T19:01:38;442.2;;;692.1;;
22515;SDS011;11424;48.860;9.624;2023-02-01T19:06:38;428;;;694;;
22515;SDS011;11424;48.860;9.624;2023-02-01T19:11:38;435.2;;;699.9;;
22515;SDS011;11424;48.860;9.624;2023-02-01T19:16:38;430.8;;;697.3;;
22515;SDS011;11424;48.860;9.624;2023-02-01T19:21:38;435.4;;;698;;
22515;SDS011;11424;48.860;9.624;2023-02-01T19:26:39;450.7;;;696.8;;
22515;SDS011;11424;48.860;9.624;2023-02-01T19:31:38;458.6;;;696.7;;
22515;SDS011;11424;48.860;9.624;2023-02-01T19:36:39;455;;;697.7;;
22515;SDS011;11424;48.860;9.624;2023-02-01T19:41:38;457.3;;;695.9;;
22515;SDS011;11424;48.860;9.624;2023-02-01T19:46:39;464.4;;;696.3;;
22515;SDS011;11424;48.860;9.624;2023-02-01T19:51:38;462.5;;;705.6;;
22515;SDS011;11424;48.860;9.624;2023-02-01T19:56:38;456.9;;;701.4;;
22515;SDS011;11424;48.860;9.624;2023-02-01T20:01:38;450.7;;;696.9;;
22515;SDS011;11424;48.860;9.624;2023-02-01T20:06:39;461.5;;;690.9;;
22515;SDS011;11424;48.860;9.624;2023-02-01T20:11:38;458.6;;;695.1;;
22515;SDS011;11424;48.860;9.624;2023-02-01T20:16:39;450.3;;;690;;
22515;SDS011;11424;48.860;9.624;2023-02-01T20:21:39;441.5;;;685.6;;
22515;SDS011;11424;48.860;9.624;2023-02-01T20:26:39;439.6;;;686;;
22515;SDS011;11424;48.860;9.624;2023-02-01T20:31:38;426;;;687.5;;
22515;SDS011;11424;48.860;9.624;2023-02-01T20:36:39;428.2;;;687.9;;
22515;SDS011;11424;48.860;9.624;2023-02-01T20:41:38;431.9;;;691.1;;
22515;SDS011;11424;48.860;9.624;2023-02-01T20:46:39;441;;;689;;
22515;SDS011;11424;48.860;9.624;2023-02-01T20:51:38;451.2;;;692.9;;
22515;SDS011;11424;48.860;9.624;2023-02-01T20:56:39;454.1;;;695.7;;
22515;SDS011;11424;48.860;9.624;2023-02-01T21:01:39;463;;;698;;
22515;SDS011;11424;48.860;9.624;2023-02-01T21:06:39;463.5;;;694.6;;
22515;SDS011;11424;48.860;9.624;2023-02-01T21:11:39;467.3;;;694;;
22515;SDS011;11424;48.860;9.624;2023-02-01T21:16:39;459;;;705.7;;
22515;SDS011;11424;48.860;9.624;2023-02-01T21:21:39;456.1;;;704.5;;
22515;SDS011;11424;48.860;9.624;2023-02-01T21:26:39;462.6;;;697.2;;
22515;SDS011;11424;48.860;9.624;2023-02-01T21:31:39;460.9;;;697;;
22515;SDS011;11424;48.860;9.624;2023-02-01T21:36:39;451.1;;;694.8;;
22515;SDS011;11424;48.860;9.624;2023-02-01T21:41:39;455.1;;;698.1;;
22515;SDS011;11424;48.860;9.624;2023-02-01T21:46:39;447.1;;;694.2;;
22515;SDS011;11424;48.860;9.624;2023-02-01T21:51:39;446.9;;;693.1;;
22515;SDS011;11424;48.860;9.624;2023-02-01T21:56:39;445.3;;;693.1;;
22515;SDS011;11424;48.860;9.624;2023-02-01T22:01:39;429.1;;;695.5;;
22515;SDS011;11424;48.860;9.624;2023-02-01T22:06:39;450.8;;;696.8;;
22515;SDS011;11424;48.860;9.624;2023-02-01T22:11:39;445.8;;;695.2;;
22515;SDS011;11424;48.860;9.624;2023-02-01T22:16:39;447.7;;;700.1;;
22515;SDS011;11424;48.860;9.624;2023-02-01T22:21:39;446.8;;;695.5;;
22515;SDS011;11424;48.860;9.624;2023-02-01T22:26:39;447.9;;;694.3;;
22515;SDS011;11424;48.860;9.624;2023-02-01T22:31:39;447.4;;;694.3;;
22515;SDS011;11424;48.860;9.624;2023-02-01T22:36:39;441.3;;;691.3;;
22515;SDS011;11424;48.860;9.624;2023-02-01T22:41:39;434.3;;;686.8;;
22515;SDS011;11424;48.860;9.624;2023-02-01T22:46:39;437.1;;;689.9;;
22515;SDS011;11424;48.860;9.624;2023-02-01T22:51:39;434.6;;;685.7;;
22515;SDS011;11424;48.860;9.624;2023-02-01T22:56:39;438.1;;;687;;
22515;SDS011;11424;48.860;9.624;2023-02-01T23:01:39;434.4;;;687.4;;
22515;SDS011;11424;48.860;9.624;2023-02-01T23:06:39;438.1;;;686.1;;
22515;SDS011;11424;48.860;9.624;2023-02-01T23:11:39;437.5;;;685;;
22515;SDS011;11424;48.860;9.624;2023-02-01T23:16:39;442.6;;;686.7;;
22515;SDS011;11424;48.860;9.624;2023-02-01T23:21:39;434.7;;;682.8;;
22515;SDS011;11424;48.860;9.624;2023-02-01T23:26:39;432.4;;;675.2;;
22515;SDS011;11424;48.860;9.624;2023-02-01T23:31:39;402.8;;;654.2;;
22515;SDS011;11424;48.860;9.624;2023-02-01T23:36:39;392.8;;;639.6;;
22515;SDS011;11424;48.860;9.624;2023-02-01T23:41:39;397.6;;;648;;
22515;SDS011;11424;48.860;9.624;2023-02-01T23:46:39;416.6;;;653.2;;
22515;SDS011;11424;48.860;9.624;2023-02-01T23:51:39;407.1;;;635.3;;
22515;SDS011;11424;48.860;9.624;2023-02-01T23:56:40;421.1;;;656.1;;
